Time;durP1;ratioP1;P1;durP2;ratioP2;P2;SDS_P1;SDS_P2;PMS_P1;PMS_P2;Temp;Humidity;BMP_temperature;BMP_pressure;BME280_temperature;BME280_humidity;BME280_pressure;Samples;Min_cycle;Max_cycle;Signal;HPM_P1;HPM_P2
2022/07/23 00:00:31;;;;;;;0.40;0.40;;;19.30;69.10;;;;;;5046122;28;20033;-69
2022/07/23 00:02:57;;;;;;;0.68;0.60;;;19.30;69.80;;;;;;5063311;28;20028;-69
2022/07/23 00:05:22;;;;;;;0.73;0.60;;;19.30;69.30;;;;;;5043601;28;20052;-69
2022/07/23 00:07:48;;;;;;;0.47;0.47;;;19.20;69.30;;;;;;5048136;28;20110;-69
2022/07/23 00:10:14;;;;;;;1.25;0.60;;;19.10;69.40;;;;;;5050791;28;20068;-65
2022/07/23 00:12:40;;;;;;;2.60;1.08;;;19.10;69.50;;;;;;5053351;28;20025;-65
2022/07/23 00:15:07;;;;;;;2.20;0.93;;;19.10;69.60;;;;;;5046920;28;20055;-65
2022/07/23 00:17:33;;;;;;;1.08;0.60;;;19.00;69.70;;;;;;5051946;28;20029;-65
2022/07/23 00:19:59;;;;;;;0.88;0.70;;;19.00;69.80;;;;;;5052805;28;20071;-66
2022/07/23 00:22:25;;;;;;;1.63;0.95;;;18.90;69.90;;;;;;5065732;28;20037;-69
2022/07/23 00:24:50;;;;;;;0.80;0.80;;;18.90;70.20;;;;;;5049934;28;20033;-69
2022/07/23 00:27:16;;;;;;;0.70;0.70;;;18.80;70.30;;;;;;5064360;28;20119;-65
2022/07/23 00:29:42;;;;;;;4.30;1.13;;;18.80;71.00;;;;;;5051403;28;20044;-65
2022/07/23 00:32:07;;;;;;;3.30;1.20;;;18.80;70.60;;;;;;5051672;28;20040;-65
2022/07/23 00:34:33;;;;;;;1.27;1.13;;;18.80;70.60;;;;;;5049992;28;20049;-65
2022/07/23 00:36:59;;;;;;;0.65;0.65;;;18.70;70.70;;;;;;5048583;28;20368;-68
2022/07/23 00:39:25;;;;;;;1.45;0.95;;;18.70;70.80;;;;;;5048643;28;20056;-68
2022/07/23 00:41:51;;;;;;;1.13;0.98;;;18.70;70.80;;;;;;5040950;28;20045;-68
2022/07/23 00:44:25;;;;;;;0.63;0.63;;;18.60;70.80;;;;;;5052721;28;20040;-68
2022/07/23 00:46:53;;;;;;;0.70;0.70;;;18.60;70.90;;;;;;5045854;28;20025;-69
2022/07/23 00:49:24;;;;;;;0.80;0.80;;;18.60;71.10;;;;;;5051303;28;20029;-65
2022/07/23 00:51:51;;;;;;;1.48;1.05;;;18.60;71.30;;;;;;5051406;28;20116;-65
2022/07/23 00:54:18;;;;;;;1.52;1.00;;;18.50;71.40;;;;;;5052140;28;20064;-65
2022/07/23 00:56:45;;;;;;;1.95;1.20;;;18.50;71.60;;;;;;5064701;28;20056;-65
2022/07/23 00:59:11;;;;;;;1.02;0.93;;;18.40;71.60;;;;;;5050831;28;20025;-65
2022/07/23 01:01:37;;;;;;;1.10;1.00;;;18.40;71.60;;;;;;5059016;28;20026;-65
2022/07/23 01:04:03;;;;;;;1.17;0.88;;;18.40;71.70;;;;;;5044896;28;20040;-65
2022/07/23 01:06:29;;;;;;;1.02;0.98;;;18.40;71.80;;;;;;5049113;28;20052;-65
2022/07/23 01:08:55;;;;;;;1.27;0.90;;;18.40;71.90;;;;;;5044257;28;20064;-65
2022/07/23 01:11:23;;;;;;;1.48;1.00;;;18.30;72.00;;;;;;5045793;28;20021;-65
2022/07/23 01:13:49;;;;;;;1.17;0.80;;;18.30;72.00;;;;;;5049577;28;20066;-65
2022/07/23 01:16:14;;;;;;;1.80;1.17;;;18.30;72.00;;;;;;5047148;28;20387;-65
2022/07/23 01:18:40;;;;;;;1.00;1.00;;;18.30;72.00;;;;;;5050952;28;20033;-65
2022/07/23 01:21:06;;;;;;;1.35;1.00;;;18.30;72.10;;;;;;5066622;28;20033;-65
2022/07/23 01:23:31;;;;;;;0.70;0.70;;;18.30;72.10;;;;;;5050583;28;20586;-66
2022/07/23 01:25:57;;;;;;;0.88;0.88;;;18.30;72.00;;;;;;5065959;28;20041;-65
2022/07/23 01:28:23;;;;;;;0.95;0.80;;;18.30;72.00;;;;;;5065706;28;20119;-65
2022/07/23 01:30:48;;;;;;;0.80;0.80;;;18.30;71.90;;;;;;5032844;28;20496;-65
2022/07/23 01:33:15;;;;;;;1.13;1.02;;;18.30;71.90;;;;;;5050217;28;20181;-65
2022/07/23 01:35:40;;;;;;;0.70;0.70;;;18.30;71.90;;;;;;5051122;28;20021;-65
2022/07/23 01:38:06;;;;;;;0.68;0.65;;;18.30;72.60;;;;;;5051594;28;20376;-65
2022/07/23 01:40:32;;;;;;;1.25;0.82;;;18.30;71.90;;;;;;5051042;28;20044;-65
2022/07/23 01:42:57;;;;;;;0.88;0.88;;;18.30;71.90;;;;;;5051149;28;20040;-65
2022/07/23 01:45:23;;;;;;;0.70;0.70;;;18.20;71.80;;;;;;5050248;28;20037;-65
2022/07/23 01:47:49;;;;;;;1.35;0.93;;;18.20;71.80;;;;;;5046513;28;20037;-65
2022/07/23 01:50:14;;;;;;;1.15;0.77;;;18.20;71.90;;;;;;5066513;28;20040;-65
2022/07/23 01:52:40;;;;;;;0.80;0.70;;;18.20;71.90;;;;;;5043648;28;20033;-69
2022/07/23 01:55:07;;;;;;;1.35;1.05;;;18.10;71.90;;;;;;5044995;28;20112;-69
2022/07/23 01:57:32;;;;;;;0.50;0.50;;;18.10;71.90;;;;;;5050047;28;20032;-69
2022/07/23 01:59:58;;;;;;;3.72;0.60;;;18.10;71.90;;;;;;5050387;28;20036;-69
2022/07/23 02:02:24;;;;;;;0.95;0.85;;;18.10;72.00;;;;;;5046411;28;20075;-69
2022/07/23 02:04:50;;;;;;;0.95;0.93;;;18.00;72.00;;;;;;5044507;28;20424;-69
2022/07/23 02:07:15;;;;;;;1.55;0.77;;;18.00;72.10;;;;;;5041082;28;20037;-68
2022/07/23 02:09:41;;;;;;;0.82;0.82;;;18.00;72.10;;;;;;5049531;28;20036;-69
2022/07/23 02:12:07;;;;;;;0.52;0.50;;;18.00;72.10;;;;;;5049529;28;20029;-69
2022/07/23 02:14:33;;;;;;;1.25;0.60;;;18.00;72.00;;;;;;5042253;28;20041;-69
2022/07/23 02:16:58;;;;;;;1.10;0.90;;;18.00;72.00;;;;;;5042473;28;20037;-69
2022/07/23 02:19:24;;;;;;;0.73;0.60;;;18.00;71.90;;;;;;5043041;28;20483;-70
2022/07/23 02:21:50;;;;;;;1.13;0.68;;;18.00;71.90;;;;;;5048970;28;20029;-69
2022/07/23 02:24:16;;;;;;;1.05;0.75;;;17.90;71.80;;;;;;5048851;28;20047;-69
2022/07/23 02:26:42;;;;;;;1.55;1.10;;;18.00;71.90;;;;;;5064931;28;20087;-69
2022/07/23 02:29:08;;;;;;;1.10;0.85;;;17.90;71.90;;;;;;5038278;28;20029;-65
2022/07/23 02:31:34;;;;;;;0.60;0.60;;;17.90;71.90;;;;;;5048845;28;20044;-65
2022/07/23 02:34:00;;;;;;;0.73;0.73;;;17.90;72.00;;;;;;5049242;28;20396;-65
2022/07/23 02:36:26;;;;;;;1.33;0.60;;;17.80;72.10;;;;;;5047718;28;20090;-65
2022/07/23 02:38:52;;;;;;;0.98;0.85;;;17.80;72.10;;;;;;5055787;28;20048;-65
2022/07/23 02:41:18;;;;;;;1.80;1.15;;;17.80;72.10;;;;;;5049915;28;20068;-65
2022/07/23 02:43:43;;;;;;;0.70;0.60;;;17.80;72.10;;;;;;5048411;28;20485;-65
2022/07/23 02:46:09;;;;;;;0.80;0.80;;;17.80;72.10;;;;;;5048927;28;20040;-66
2022/07/23 02:48:34;;;;;;;1.17;0.85;;;17.70;72.20;;;;;;5048957;28;20025;-65
2022/07/23 02:51:00;;;;;;;0.73;0.73;;;17.80;72.20;;;;;;5038597;28;20049;-69
2022/07/23 02:53:26;;;;;;;1.00;0.90;;;17.70;72.10;;;;;;5051687;28;20028;-65
2022/07/23 02:55:51;;;;;;;1.05;0.82;;;17.80;72.10;;;;;;5047948;28;20329;-65
2022/07/23 02:58:17;;;;;;;0.77;0.77;;;17.70;72.00;;;;;;5050324;28;20441;-65
2022/07/23 03:00:43;;;;;;;0.77;0.70;;;17.70;72.00;;;;;;5049539;28;20404;-66
2022/07/23 03:03:09;;;;;;;0.85;0.68;;;17.70;72.00;;;;;;5048905;28;20037;-65
2022/07/23 03:05:35;;;;;;;0.40;0.40;;;17.70;72.10;;;;;;5047977;28;20076;-69
2022/07/23 03:08:01;;;;;;;0.63;0.63;;;17.60;72.00;;;;;;5049229;28;20037;-69
2022/07/23 03:10:26;;;;;;;1.23;0.80;;;17.60;72.00;;;;;;5040485;28;20036;-69
2022/07/23 03:12:52;;;;;;;0.65;0.50;;;17.60;72.00;;;;;;5042188;28;20100;-69
2022/07/23 03:15:18;;;;;;;1.40;1.02;;;17.60;72.00;;;;;;5049885;28;20028;-69
2022/07/23 03:17:44;;;;;;;0.68;0.68;;;17.60;72.10;;;;;;5040054;28;20057;-69
2022/07/23 03:20:10;;;;;;;0.93;0.50;;;17.50;72.10;;;;;;5047159;28;20063;-69
2022/07/23 03:22:35;;;;;;;0.88;0.63;;;17.50;72.00;;;;;;5053244;28;20033;-69
2022/07/23 03:25:01;;;;;;;1.00;0.90;;;17.50;72.10;;;;;;5054181;28;20025;-69
2022/07/23 03:27:29;;;;;;;0.85;0.75;;;17.50;72.10;;;;;;5053259;28;20106;-69
2022/07/23 03:29:57;;;;;;;0.90;0.80;;;17.50;72.10;;;;;;5055349;28;20115;-69
2022/07/23 03:32:24;;;;;;;1.20;0.82;;;17.50;72.10;;;;;;5066269;28;20078;-68
2022/07/23 03:34:50;;;;;;;0.60;0.50;;;17.40;72.00;;;;;;5055806;28;20494;-68
2022/07/23 03:37:17;;;;;;;0.73;0.47;;;17.40;72.00;;;;;;5054422;28;20332;-68
2022/07/23 03:39:43;;;;;;;0.90;0.70;;;17.40;72.10;;;;;;5053967;28;20040;-68
2022/07/23 03:42:08;;;;;;;0.73;0.60;;;17.40;72.30;;;;;;5052345;28;20033;-68
2022/07/23 03:44:36;;;;;;;0.70;0.70;;;17.30;72.30;;;;;;5055054;28;20667;-68
2022/07/23 03:47:02;;;;;;;0.73;0.63;;;17.30;72.30;;;;;;5055032;28;20029;-69
2022/07/23 03:49:28;;;;;;;0.82;0.73;;;17.30;72.30;;;;;;5054394;28;20037;-64
2022/07/23 03:51:54;;;;;;;1.52;0.80;;;17.30;72.40;;;;;;5048386;28;20041;-65
2022/07/23 03:54:19;;;;;;;0.93;0.82;;;17.30;72.40;;;;;;5052720;28;20029;-63
2022/07/23 03:56:45;;;;;;;0.70;0.60;;;17.30;72.40;;;;;;5048341;28;20519;-68
2022/07/23 03:59:11;;;;;;;2.58;0.82;;;17.30;72.50;;;;;;5046760;28;20090;-69
2022/07/23 04:01:36;;;;;;;1.58;0.70;;;17.30;72.50;;;;;;5055714;28;20033;-69
2022/07/23 04:04:03;;;;;;;0.80;0.80;;;17.30;72.50;;;;;;5049788;28;20025;-69
2022/07/23 04:06:28;;;;;;;0.70;0.70;;;17.30;72.50;;;;;;5054631;28;20088;-69
2022/07/23 04:08:54;;;;;;;0.73;0.73;;;17.30;72.50;;;;;;5045995;28;20053;-69
2022/07/23 04:11:20;;;;;;;1.33;1.08;;;17.30;72.50;;;;;;5045380;28;20046;-64
2022/07/23 04:13:46;;;;;;;0.50;0.45;;;17.30;72.60;;;;;;5052099;28;20140;-64
2022/07/23 04:16:11;;;;;;;0.90;0.57;;;17.30;72.60;;;;;;5054020;28;20120;-64
2022/07/23 04:18:37;;;;;;;3.05;0.98;;;17.30;72.60;;;;;;5042291;28;20403;-64
2022/07/23 04:21:03;;;;;;;0.80;0.80;;;17.30;72.50;;;;;;5051329;28;20029;-64
2022/07/23 04:23:29;;;;;;;0.93;0.73;;;17.30;72.60;;;;;;5055358;28;20029;-64
2022/07/23 04:25:54;;;;;;;0.88;0.88;;;17.30;72.60;;;;;;5054334;28;20037;-64
2022/07/23 04:28:20;;;;;;;1.02;0.75;;;17.30;72.70;;;;;;5069834;28;20431;-64
2022/07/23 04:30:46;;;;;;;0.80;0.80;;;17.30;72.80;;;;;;5065657;28;20143;-64
2022/07/23 04:33:11;;;;;;;1.23;0.80;;;17.40;72.90;;;;;;5052667;28;20040;-64
2022/07/23 04:35:37;;;;;;;0.60;0.50;;;17.40;73.00;;;;;;5046647;28;20438;-69
2022/07/23 04:38:03;;;;;;;1.38;0.95;;;17.40;73.00;;;;;;5066997;28;20514;-69
2022/07/23 04:40:29;;;;;;;0.60;0.60;;;17.40;73.00;;;;;;5050596;28;20032;-68
2022/07/23 04:42:56;;;;;;;0.70;0.70;;;17.50;73.00;;;;;;5049583;28;20755;-68
2022/07/23 04:45:25;;;;;;;0.57;0.57;;;17.50;73.00;;;;;;5042479;28;20033;-68
2022/07/23 04:47:51;;;;;;;0.68;0.68;;;17.50;73.00;;;;;;5049392;28;20439;-68
2022/07/23 04:50:21;;;;;;;0.50;0.50;;;17.60;73.00;;;;;;5051323;28;20053;-68
2022/07/23 04:52:47;;;;;;;0.95;0.68;;;17.60;73.00;;;;;;5046773;28;20033;-68
2022/07/23 04:55:13;;;;;;;0.60;0.60;;;17.70;73.00;;;;;;5050899;28;20032;-64
2022/07/23 04:57:38;;;;;;;0.88;0.52;;;17.70;73.10;;;;;;5051909;28;20055;-69
2022/07/23 05:00:05;;;;;;;0.65;0.60;;;17.70;73.10;;;;;;5045029;28;20033;-64
2022/07/23 05:02:30;;;;;;;1.95;0.85;;;17.80;73.20;;;;;;5063559;28;20064;-64
2022/07/23 05:04:56;;;;;;;1.15;0.75;;;17.80;73.20;;;;;;5049980;28;20452;-69
2022/07/23 05:07:21;;;;;;;0.63;0.63;;;17.90;73.20;;;;;;5049194;28;20507;-65
2022/07/23 05:09:47;;;;;;;0.55;0.55;;;18.00;73.30;;;;;;5051016;28;20029;-63
2022/07/23 05:12:13;;;;;;;0.85;0.55;;;18.00;73.20;;;;;;5048598;28;20044;-65
2022/07/23 05:14:39;;;;;;;6.82;0.75;;;18.10;73.20;;;;;;5043831;28;20037;-64
2022/07/23 05:17:04;;;;;;;0.50;0.50;;;18.10;73.10;;;;;;5047749;28;20029;-64
2022/07/23 05:19:30;;;;;;;0.80;0.63;;;18.10;73.20;;;;;;5060064;28;20156;-64
2022/07/23 05:21:56;;;;;;;0.57;0.57;;;18.20;73.20;;;;;;5050712;28;20078;-64
2022/07/23 05:24:22;;;;;;;0.73;0.60;;;18.20;73.20;;;;;;5042922;28;20084;-64
2022/07/23 05:26:47;;;;;;;0.95;0.70;;;18.30;73.10;;;;;;5049587;28;20100;-64
2022/07/23 05:29:13;;;;;;;0.40;0.40;;;18.30;73.00;;;;;;5043380;28;20107;-64
2022/07/23 05:31:39;;;;;;;0.73;0.63;;;18.30;72.90;;;;;;5048684;28;20044;-65
2022/07/23 05:34:04;;;;;;;0.57;0.50;;;18.40;72.80;;;;;;5048343;28;20045;-68
2022/07/23 05:36:31;;;;;;;0.88;0.70;;;18.40;72.80;;;;;;5045342;28;20067;-69
2022/07/23 05:38:58;;;;;;;1.08;0.50;;;18.50;72.70;;;;;;5047936;28;20051;-69
2022/07/23 05:41:24;;;;;;;0.63;0.60;;;18.60;72.60;;;;;;5049488;28;20060;-69
2022/07/23 05:43:49;;;;;;;0.40;0.30;;;18.60;72.40;;;;;;5050102;28;20111;-65
2022/07/23 05:46:15;;;;;;;2.40;0.63;;;18.70;72.30;;;;;;5050432;28;20128;-65
2022/07/23 05:48:42;;;;;;;1.98;0.68;;;18.80;72.20;;;;;;5046666;28;20784;-64
2022/07/23 05:51:08;;;;;;;0.40;0.40;;;18.90;72.00;;;;;;5040487;28;20029;-64
2022/07/23 05:53:34;;;;;;;0.40;0.40;;;18.90;71.80;;;;;;5049088;28;20582;-69
2022/07/23 05:56:01;;;;;;;2.47;0.50;;;19.00;71.60;;;;;;5049743;28;20056;-65
2022/07/23 05:58:27;;;;;;;0.90;0.73;;;19.00;71.40;;;;;;5066593;28;20017;-65
2022/07/23 06:00:52;;;;;;;0.80;0.50;;;19.00;71.30;;;;;;5050786;28;20408;-65
2022/07/23 06:03:18;;;;;;;0.40;0.40;;;19.10;71.10;;;;;;5065267;28;20108;-65
2022/07/23 06:05:44;;;;;;;0.40;0.40;;;19.20;70.90;;;;;;5038968;28;20048;-69
2022/07/23 06:08:09;;;;;;;0.30;0.30;;;19.20;70.70;;;;;;5049902;28;20407;-69
2022/07/23 06:10:35;;;;;;;0.70;0.38;;;19.30;70.50;;;;;;5035283;28;20068;-69
2022/07/23 06:13:01;;;;;;;0.70;0.60;;;19.30;70.40;;;;;;5037734;28;20044;-69
2022/07/23 06:15:26;;;;;;;0.40;0.40;;;19.40;70.40;;;;;;5034775;28;20485;-69
2022/07/23 06:17:52;;;;;;;0.50;0.50;;;19.40;70.20;;;;;;5041088;28;20029;-69
2022/07/23 06:20:18;;;;;;;4.78;0.60;;;19.50;70.20;;;;;;5045391;28;20044;-69
2022/07/23 06:22:43;;;;;;;0.25;0.25;;;19.50;70.10;;;;;;5040280;28;20032;-65
2022/07/23 06:25:09;;;;;;;0.50;0.50;;;19.60;70.00;;;;;;5046285;28;20037;-65
2022/07/23 06:27:35;;;;;;;0.95;0.80;;;19.70;69.90;;;;;;5054684;28;20482;-65
2022/07/23 06:30:00;;;;;;;0.63;0.50;;;19.70;69.70;;;;;;5048974;28;20037;-65
2022/07/23 06:32:26;;;;;;;0.30;0.30;;;19.80;69.60;;;;;;5038042;28;20061;-65
2022/07/23 06:34:52;;;;;;;0.82;0.60;;;19.80;69.40;;;;;;5053834;28;20036;-65
2022/07/23 06:37:17;;;;;;;1.95;1.33;;;19.90;69.40;;;;;;5059938;28;20025;-65
2022/07/23 06:39:43;;;;;;;0.40;0.40;;;19.90;69.10;;;;;;5049594;28;20147;-65
2022/07/23 06:42:10;;;;;;;1.25;0.90;;;19.90;68.90;;;;;;5047266;28;20036;-64
2022/07/23 06:44:35;;;;;;;0.50;0.50;;;19.90;68.70;;;;;;5039844;28;20029;-66
2022/07/23 06:47:01;;;;;;;0.50;0.50;;;20.00;68.70;;;;;;5044149;28;20029;-66
2022/07/23 06:49:27;;;;;;;2.28;0.50;;;20.00;68.60;;;;;;5040176;28;20032;-71
2022/07/23 06:51:52;;;;;;;1.67;0.60;;;20.10;68.60;;;;;;5037770;28;20068;-70
2022/07/23 06:54:18;;;;;;;0.60;0.60;;;20.20;68.40;;;;;;5048659;28;20602;-70
2022/07/23 06:56:44;;;;;;;0.60;0.40;;;20.20;67.50;;;;;;5043935;28;20037;-70
2022/07/23 06:59:10;;;;;;;0.60;0.60;;;20.10;67.30;;;;;;5047523;28;20029;-71
2022/07/23 07:01:35;;;;;;;0.47;0.47;;;20.20;67.50;;;;;;5044466;28;20029;-65
2022/07/23 07:04:01;;;;;;;0.60;0.60;;;20.20;67.10;;;;;;5043846;28;20102;-66
2022/07/23 07:06:27;;;;;;;0.57;0.57;;;20.20;67.10;;;;;;5057556;28;20057;-66
2022/07/23 07:08:52;;;;;;;0.40;0.40;;;20.30;67.10;;;;;;5062267;28;20025;-66
2022/07/23 07:11:18;;;;;;;0.57;0.57;;;20.40;66.90;;;;;;5041376;28;20021;-66
2022/07/23 07:13:44;;;;;;;0.43;0.43;;;20.50;66.80;;;;;;5041526;28;20039;-65
2022/07/23 07:16:09;;;;;;;0.60;0.60;;;20.50;66.60;;;;;;5042871;28;20033;-66
2022/07/23 07:18:35;;;;;;;0.60;0.60;;;20.60;66.20;;;;;;5040711;28;20392;-65
2022/07/23 07:21:01;;;;;;;1.55;0.52;;;20.60;65.50;;;;;;5040038;28;20376;-66
2022/07/23 07:23:26;;;;;;;0.50;0.50;;;20.60;65.60;;;;;;5045231;28;20112;-67
2022/07/23 07:25:52;;;;;;;0.40;0.40;;;20.60;65.50;;;;;;5043980;28;20029;-67
2022/07/23 07:28:18;;;;;;;1.35;0.52;;;20.60;65.10;;;;;;5043994;28;20021;-66
2022/07/23 07:30:43;;;;;;;0.60;0.60;;;20.60;65.00;;;;;;5045673;28;20037;-66
2022/07/23 07:33:09;;;;;;;1.00;0.80;;;20.70;65.20;;;;;;5056498;28;20029;-71
2022/07/23 07:35:35;;;;;;;0.38;0.38;;;20.80;64.70;;;;;;5041718;28;20033;-72
2022/07/23 07:38:00;;;;;;;0.60;0.50;;;20.80;64.50;;;;;;5042808;28;20029;-71
2022/07/23 07:40:27;;;;;;;1.67;0.68;;;20.80;64.40;;;;;;5053169;28;20048;-71
2022/07/23 07:42:56;;;;;;;1.05;0.60;;;20.90;64.10;;;;;;5042175;28;20021;-72
2022/07/23 07:45:23;;;;;;;1.30;0.95;;;21.00;63.70;;;;;;5039466;28;20048;-72
2022/07/23 07:47:50;;;;;;;0.70;0.70;;;21.00;63.70;;;;;;5033793;28;20056;-72
2022/07/23 07:50:16;;;;;;;0.70;0.70;;;21.10;63.80;;;;;;5048242;28;20360;-66
2022/07/23 07:52:42;;;;;;;0.85;0.85;;;21.20;63.70;;;;;;5039138;28;20434;-67
2022/07/23 07:55:09;;;;;;;0.55;0.55;;;21.30;63.80;;;;;;5045138;28;20082;-72
2022/07/23 07:57:36;;;;;;;0.40;0.40;;;21.40;63.80;;;;;;5040091;28;20458;-71
2022/07/23 08:00:02;;;;;;;0.20;0.20;;;21.40;63.50;;;;;;5044662;28;20026;-71
2022/07/23 08:02:28;;;;;;;1.35;0.82;;;21.50;63.50;;;;;;5038958;28;20420;-71
2022/07/23 08:04:53;;;;;;;0.73;0.73;;;21.60;63.00;;;;;;5036361;28;20119;-72
2022/07/23 08:07:19;;;;;;;7.00;0.70;;;21.60;62.80;;;;;;5033070;28;20046;-71
2022/07/23 08:09:45;;;;;;;0.60;0.40;;;21.60;62.70;;;;;;5043837;28;20083;-66
2022/07/23 08:12:10;;;;;;;0.68;0.68;;;21.60;62.40;;;;;;5042663;28;20036;-71
2022/07/23 08:14:36;;;;;;;0.47;0.40;;;21.70;62.20;;;;;;5044033;28;20530;-72
2022/07/23 08:17:02;;;;;;;1.15;0.63;;;21.80;62.10;;;;;;5044408;28;20063;-71
2022/07/23 08:19:32;;;;;;;0.50;0.50;;;21.80;62.20;;;;;;5037341;28;20076;-71
2022/07/23 08:21:58;;;;;;;0.50;0.50;;;21.80;62.10;;;;;;5039185;28;20057;-71
2022/07/23 08:24:24;;;;;;;0.50;0.50;;;21.70;62.00;;;;;;5047757;28;20069;-72
2022/07/23 08:26:49;;;;;;;0.50;0.50;;;21.60;62.10;;;;;;5043050;28;20060;-73
2022/07/23 08:29:15;;;;;;;1.25;0.85;;;21.50;62.40;;;;;;5038748;28;20033;-72
2022/07/23 08:31:40;;;;;;;1.02;0.63;;;21.60;62.30;;;;;;5034893;28;20407;-72
2022/07/23 08:34:06;;;;;;;0.47;0.40;;;21.80;62.10;;;;;;5039717;28;20476;-72
2022/07/23 08:36:32;;;;;;;0.60;0.52;;;21.90;61.60;;;;;;5042360;28;20143;-67
2022/07/23 08:38:59;;;;;;;1.48;0.40;;;22.10;61.10;;;;;;5039204;28;20060;-67
2022/07/23 08:41:25;;;;;;;0.40;0.40;;;22.20;60.90;;;;;;5057150;28;20055;-66
2022/07/23 08:43:51;;;;;;;0.50;0.40;;;22.30;60.30;;;;;;5039040;28;20021;-72
2022/07/23 08:46:19;;;;;;;1.00;0.55;;;22.40;60.20;;;;;;5044981;28;20063;-67
2022/07/23 08:48:48;;;;;;;0.35;0.35;;;22.50;59.50;;;;;;5058204;28;20037;-67
2022/07/23 08:51:15;;;;;;;0.50;0.50;;;22.60;59.60;;;;;;5041437;28;20035;-68
2022/07/23 08:53:41;;;;;;;0.40;0.40;;;22.70;59.60;;;;;;5043953;28;20120;-67
2022/07/23 08:56:08;;;;;;;0.85;0.60;;;22.70;59.40;;;;;;5043183;28;20029;-72
2022/07/23 08:58:33;;;;;;;2.35;0.82;;;22.70;59.20;;;;;;5046123;28;20037;-72
2022/07/23 09:01:00;;;;;;;1.00;0.95;;;22.80;58.80;;;;;;5057526;28;20369;-72
2022/07/23 09:03:29;;;;;;;0.50;0.50;;;22.90;58.80;;;;;;5021998;28;20029;-72
2022/07/23 09:05:56;;;;;;;0.35;0.35;;;23.00;57.70;;;;;;5037781;28;20087;-67
2022/07/23 09:08:23;;;;;;;0.68;0.68;;;23.00;57.40;;;;;;5056641;28;20052;-67
2022/07/23 09:10:58;;;;;;;0.40;0.40;;;23.10;57.70;;;;;;5059634;28;20048;-67
2022/07/23 09:13:26;;;;;;;0.85;0.85;;;23.30;57.40;;;;;;5036045;28;20498;-73
2022/07/23 09:15:54;;;;;;;0.60;0.60;;;23.30;56.40;;;;;;5052810;28;20025;-72
2022/07/23 09:18:27;;;;;;;0.60;0.60;;;23.20;56.40;;;;;;5037653;28;20023;-72
2022/07/23 09:21:06;;;;;;;1.08;0.95;;;23.20;56.70;;;;;;5036896;28;20033;-72
2022/07/23 09:23:39;;;;;;;0.60;0.60;;;23.20;56.40;;;;;;5035954;28;20029;-70
2022/07/23 09:26:38;;;;;;;13.55;0.70;;;23.20;56.40;;;;;;5039193;28;20037;-70
2022/07/23 09:29:19;;;;;;;0.68;0.50;;;23.30;56.00;;;;;;5053982;28;20124;-70
2022/07/23 09:31:51;;;;;;;0.55;0.55;;;23.30;56.10;;;;;;5043967;28;20033;-66
2022/07/23 09:34:35;;;;;;;0.40;0.40;;;23.50;55.90;;;;;;5043828;28;20051;-66
2022/07/23 09:37:18;;;;;;;0.60;0.60;;;23.60;54.60;;;;;;5049270;28;20092;-66
2022/07/23 09:39:46;;;;;;;0.47;0.30;;;23.70;54.20;;;;;;5047068;28;20527;-66
2022/07/23 09:42:21;;;;;;;1.75;0.50;;;23.80;53.40;;;;;;5048458;28;20029;-66
2022/07/23 09:44:49;;;;;;;0.60;0.60;;;23.90;53.70;;;;;;5044179;28;20040;-70
2022/07/23 09:47:15;;;;;;;1.05;0.70;;;24.10;54.00;;;;;;5047575;28;20487;-70
2022/07/23 09:49:57;;;;;;;0.40;0.40;;;24.20;54.10;;;;;;5043686;28;20037;-70
2022/07/23 09:52:28;;;;;;;0.60;0.60;;;24.50;54.00;;;;;;5043501;28;20464;-70
2022/07/23 09:54:59;;;;;;;0.60;0.60;;;24.50;53.50;;;;;;5042060;28;20033;-70
2022/07/23 09:57:26;;;;;;;0.77;0.77;;;24.50;52.90;;;;;;5043626;28;20024;-69
2022/07/23 09:59:52;;;;;;;0.50;0.40;;;24.50;53.40;;;;;;5042475;28;20030;-69
2022/07/23 10:02:18;;;;;;;0.70;0.63;;;24.50;52.40;;;;;;5040331;28;20032;-70
2022/07/23 10:04:44;;;;;;;0.88;0.88;;;24.50;52.90;;;;;;5041907;28;20026;-70
2022/07/23 10:07:10;;;;;;;1.42;0.60;;;24.60;52.20;;;;;;5036667;28;20138;-66
2022/07/23 10:09:39;;;;;;;0.80;0.50;;;24.70;52.10;;;;;;5040382;28;20903;-65
2022/07/23 10:14:45;;;;;;;1.05;0.90;;;24.80;51.30;;;;;;5040460;28;20067;-66
2022/07/23 10:17:11;;;;;;;0.60;0.60;;;24.80;50.50;;;;;;5040168;28;20033;-65
2022/07/23 10:19:37;;;;;;;0.55;0.55;;;24.80;50.90;;;;;;5037288;28;20044;-71
2022/07/23 10:22:09;;;;;;;1.45;0.77;;;24.90;51.10;;;;;;5031780;28;20660;-71
2022/07/23 10:24:35;;;;;;;0.55;0.55;;;25.00;51.00;;;;;;5039490;28;20100;-70
2022/07/23 10:27:42;;;;;;;1.35;0.90;;;25.00;51.00;;;;;;5034524;28;20480;-65
2022/07/23 10:30:25;;;;;;;0.50;0.50;;;25.10;50.90;;;;;;5026953;28;20124;-65
2022/07/23 10:33:11;;;;;;;0.52;0.52;;;25.00;50.60;;;;;;5040052;28;20068;-66
2022/07/23 10:36:15;;;;;;;0.50;0.50;;;25.20;51.10;;;;;;5044231;28;20443;-66
2022/07/23 10:38:56;;;;;;;0.70;0.70;;;25.30;49.70;;;;;;5001898;28;20120;-66
2022/07/23 10:41:36;;;;;;;0.60;0.60;;;25.50;49.40;;;;;;5000023;28;20087;-66
2022/07/23 10:44:13;;;;;;;1.15;0.60;;;25.60;49.00;;;;;;5025999;28;20484;-66
2022/07/23 10:49:32;;;;;;;0.60;0.60;;;25.70;48.30;;;;;;5046705;28;20123;-66
2022/07/23 10:52:13;;;;;;;0.45;0.45;;;25.70;48.60;;;;;;5059639;28;20021;-66
2022/07/23 10:54:39;;;;;;;0.60;0.60;;;25.80;48.90;;;;;;5042415;28;20108;-66
2022/07/23 10:57:07;;;;;;;0.50;0.50;;;26.00;49.30;;;;;;5041724;28;20083;-66
2022/07/23 11:00:11;;;;;;;0.75;0.75;;;26.20;49.10;;;;;;5046998;28;20053;-66
2022/07/23 11:02:39;;;;;;;0.77;0.60;;;26.40;48.50;;;;;;5037551;28;20402;-66
2022/07/23 11:05:35;;;;;;;0.75;0.75;;;26.60;48.30;;;;;;5030398;28;20083;-65
2022/07/23 11:08:03;;;;;;;0.70;0.70;;;26.70;48.10;;;;;;5038930;28;20045;-66
2022/07/23 11:10:41;;;;;;;1.00;0.80;;;26.90;47.60;;;;;;5042101;28;20490;-65
2022/07/23 11:13:22;;;;;;;0.77;0.77;;;27.00;47.30;;;;;;5049396;28;20035;-66
2022/07/23 11:16:06;;;;;;;1.52;0.50;;;26.90;46.90;;;;;;5046376;28;20087;-66
2022/07/23 11:18:44;;;;;;;0.70;0.70;;;27.00;47.20;;;;;;5037949;28;20036;-70
2022/07/23 11:21:31;;;;;;;0.95;0.60;;;27.20;47.60;;;;;;5048715;28;20021;-70
2022/07/23 11:23:59;;;;;;;0.73;0.70;;;27.50;47.30;;;;;;5049406;28;20027;-70
2022/07/23 11:26:39;;;;;;;0.90;0.90;;;27.70;47.00;;;;;;5044937;28;20025;-70
2022/07/23 11:31:59;;;;;;;0.50;0.50;;;27.60;46.40;;;;;;5047525;28;20036;-70
2022/07/23 11:34:32;;;;;;;0.75;0.75;;;27.50;45.60;;;;;;5064360;28;20023;-70
2022/07/23 11:36:59;;;;;;;0.70;0.70;;;27.60;45.90;;;;;;5046771;28;20044;-65
2022/07/23 11:39:26;;;;;;;3.90;0.80;;;27.70;46.30;;;;;;5044187;28;20036;-65
2022/07/23 11:41:52;;;;;;;1.20;1.10;;;27.80;46.00;;;;;;5046058;28;20033;-66
2022/07/23 11:44:33;;;;;;;1.08;0.82;;;27.90;45.60;;;;;;5048087;28;20116;-66
2022/07/23 11:47:01;;;;;;;0.65;0.65;;;27.80;45.90;;;;;;5051163;28;20115;-65
2022/07/23 11:49:27;;;;;;;0.70;0.70;;;27.90;46.10;;;;;;5052722;28;20036;-66
2022/07/23 11:52:07;;;;;;;0.52;0.52;;;28.10;45.80;;;;;;5047094;28;20033;-66
2022/07/23 11:54:35;;;;;;;0.82;0.75;;;28.10;44.50;;;;;;5051066;28;20040;-66
2022/07/23 11:57:03;;;;;;;0.60;0.60;;;28.10;44.90;;;;;;5051886;28;20171;-66
2022/07/23 11:59:32;;;;;;;0.70;0.70;;;28.30;44.40;;;;;;5049975;28;20440;-70
2022/07/23 12:02:02;;;;;;;0.57;0.50;;;28.50;44.20;;;;;;5043939;28;20105;-70
2022/07/23 12:04:44;;;;;;;0.80;0.80;;;28.70;43.90;;;;;;5050487;28;20171;-66
2022/07/23 12:07:49;;;;;;;0.80;0.80;;;28.90;44.00;;;;;;5049488;28;20408;-67
2022/07/23 12:10:19;;;;;;;0.60;0.57;;;29.10;43.40;;;;;;5016413;28;20523;-70
2022/07/23 12:12:49;;;;;;;0.55;0.55;;;29.30;43.30;;;;;;5053318;28;20064;-66
2022/07/23 12:15:17;;;;;;;0.88;0.88;;;29.30;42.90;;;;;;5045826;28;20468;-66
2022/07/23 12:17:45;;;;;;;0.80;0.80;;;29.40;41.70;;;;;;5047652;28;20471;-66
2022/07/23 12:20:17;;;;;;;0.98;0.90;;;29.40;40.90;;;;;;5039145;28;20040;-66
2022/07/23 12:22:45;;;;;;;1.00;0.82;;;29.20;41.40;;;;;;5049901;28;20025;-65
2022/07/23 12:25:15;;;;;;;1.27;0.90;;;29.30;40.40;;;;;;5049361;28;20040;-66
2022/07/23 12:27:41;;;;;;;0.57;0.57;;;29.40;41.10;;;;;;5052754;28;20355;-65
2022/07/23 12:30:25;;;;;;;0.60;0.60;;;29.50;41.30;;;;;;5065443;28;20112;-70
2022/07/23 12:32:53;;;;;;;0.73;0.73;;;29.50;41.60;;;;;;5041481;28;20059;-70
2022/07/23 12:35:19;;;;;;;0.60;0.60;;;29.20;42.10;;;;;;5051749;28;20119;-70
2022/07/23 12:37:47;;;;;;;0.68;0.65;;;28.80;42.40;;;;;;5047045;28;20064;-70
2022/07/23 12:41:04;;;;;;;0.75;0.70;;;28.60;42.30;;;;;;5049795;28;20025;-66
2022/07/23 12:43:38;;;;;;;0.60;0.60;;;28.70;42.10;;;;;;5032180;28;20034;-66
2022/07/23 12:46:23;;;;;;;0.88;0.88;;;29.00;42.20;;;;;;5046809;28;20522;-70
2022/07/23 12:48:52;;;;;;;0.70;0.70;;;29.10;42.20;;;;;;5041875;28;20451;-70
2022/07/23 12:51:20;;;;;;;0.88;0.60;;;29.30;41.10;;;;;;5040595;28;20016;-70
2022/07/23 12:53:54;;;;;;;0.73;0.73;;;29.30;41.00;;;;;;5060788;28;20117;-70
2022/07/23 12:56:29;;;;;;;0.77;0.77;;;29.30;41.60;;;;;;5044606;28;20063;-67
2022/07/23 12:59:06;;;;;;;1.40;0.90;;;29.30;42.00;;;;;;5041251;28;20036;-70
2022/07/23 13:01:35;;;;;;;0.90;0.75;;;29.30;41.40;;;;;;5032500;28;20022;-65